Terminal Aerodrome Forecast
Issued by NWS

Home | Current Version | Previous Version | Text Only | Print | Product List | Glossary On
Versions: 1 2 3 4 5 6 7 8 9 10 11 12 13 14 15 16 17 18 19 20
006
FTUS43 KAPX 302329
TAFMBL
TAF
KMBL 302329Z 0100/0124 08012KT P6SM VCSH OVC015
     FM010600 08010G18KT 3SM -SHRA BR VCTS OVC015CB
     FM010900 10010G19KT P6SM -SHRA OVC015
     FM011100 12008KT P6SM VCSH OVC010
     FM011500 18010G19KT P6SM BKN015
     FM011700 19010G21KT P6SM BKN035
     FM011800 20011G22KT P6SM BKN040=

USA.gov is the U.S. government's official web portal to all federal, state and local government web resources and services.